sensor_id;sensor_type;location;lat;lon;timestamp;pressure;altitude;pressure_sealevel;temperature;humidity
28354;BME280;15603;50.878;8.036;2023-02-19T00:01:43;145468.47;;;9.33;100.00
28354;BME280;15603;50.878;8.036;2023-02-19T00:04:13;145366.50;;;8.90;100.00
28354;BME280;15603;50.878;8.036;2023-02-19T00:06:42;145470.91;;;9.34;100.00
28354;BME280;15603;50.878;8.036;2023-02-19T00:09:11;145463.63;;;9.31;100.00
28354;BME280;15603;50.878;8.036;2023-02-19T00:11:38;145456.34;;;9.28;100.00
28354;BME280;15603;50.878;8.036;2023-02-19T00:14:06;145466.06;;;9.32;100.00
28354;BME280;15603;50.878;8.036;2023-02-19T00:16:38;145325.22;;;8.72;100.00
28354;BME280;15603;50.878;8.036;2023-02-19T00:19:09;145463.63;;;9.31;100.00
28354;BME280;15603;50.878;8.036;2023-02-19T00:21:37;145438.13;;;9.20;100.00
28354;BME280;15603;50.878;8.036;2023-02-19T00:24:06;145458.75;;;9.29;100.00
28354;BME280;15603;50.878;8.036;2023-02-19T00:26:33;145444.19;;;9.22;100.00
28354;BME280;15603;50.878;8.036;2023-02-19T00:29:00;145443.00;;;9.22;100.00
28354;BME280;15603;50.878;8.036;2023-02-19T00:31:33;145435.69;;;9.19;100.00
28354;BME280;15603;50.878;8.036;2023-02-19T00:34:03;145470.91;;;9.34;100.00
28354;BME280;15603;50.878;8.036;2023-02-19T00:36:32;145441.75;;;9.21;100.00
28354;BME280;15603;50.878;8.036;2023-02-19T00:38:59;145413.81;;;9.10;100.00
28354;BME280;15603;50.878;8.036;2023-02-19T00:41:27;145467.25;;;9.32;100.00
28354;BME280;15603;50.878;8.036;2023-02-19T00:44:03;145429.63;;;9.16;100.00
28354;BME280;15603;50.878;8.036;2023-02-19T00:47:06;145463.63;;;9.31;100.00
28354;BME280;15603;50.878;8.036;2023-02-19T00:49:25;145461.22;;;9.30;100.00
28354;BME280;15603;50.878;8.036;2023-02-19T00:51:52;145459.97;;;9.29;100.00
28354;BME280;15603;50.878;8.036;2023-02-19T00:54:19;145453.91;;;9.27;100.00
28354;BME280;15603;50.878;8.036;2023-02-19T00:56:49;145463.63;;;9.31;100.00
28354;BME280;15603;50.878;8.036;2023-02-19T00:59:16;145359.19;;;8.87;100.00
28354;BME280;15603;50.878;8.036;2023-02-19T01:01:43;145463.63;;;9.31;100.00
28354;BME280;15603;50.878;8.036;2023-02-19T01:04:11;145461.22;;;9.30;100.00
28354;BME280;15603;50.878;8.036;2023-02-19T01:06:38;145461.22;;;9.30;100.00
28354;BME280;15603;50.878;8.036;2023-02-19T01:09:05;145446.59;;;9.23;100.00
28354;BME280;15603;50.878;8.036;2023-02-19T01:11:34;145356.78;;;8.86;100.00
28354;BME280;15603;50.878;8.036;2023-02-19T01:14:01;145458.75;;;9.29;100.00
28354;BME280;15603;50.878;8.036;2023-02-19T01:16:29;145461.22;;;9.30;100.00
28354;BME280;15603;50.878;8.036;2023-02-19T01:18:57;145361.63;;;8.88;100.00
28354;BME280;15603;50.878;8.036;2023-02-19T01:21:25;145463.63;;;9.31;100.00
28354;BME280;15603;50.878;8.036;2023-02-19T01:23:53;145473.31;;;9.35;100.00
28354;BME280;15603;50.878;8.036;2023-02-19T01:26:25;145455.09;;;9.27;100.00
28354;BME280;15603;50.878;8.036;2023-02-19T01:28:53;145457.56;;;9.28;100.00
28354;BME280;15603;50.878;8.036;2023-02-19T01:31:22;145480.63;;;9.38;100.00
28354;BME280;15603;50.878;8.036;2023-02-19T01:33:52;145473.31;;;9.35;100.00
28354;BME280;15603;50.878;8.036;2023-02-19T01:36:20;145474.56;;;9.35;100.00
28354;BME280;15603;50.878;8.036;2023-02-19T01:38:47;145473.31;;;9.35;100.00
28354;BME280;15603;50.878;8.036;2023-02-19T01:41:21;145475.78;;;9.36;100.00
28354;BME280;15603;50.878;8.036;2023-02-19T01:44:06;145470.91;;;9.34;100.00
28354;BME280;15603;50.878;8.036;2023-02-19T01:46:36;145466.06;;;9.32;100.00
28354;BME280;15603;50.878;8.036;2023-02-19T01:49:09;145490.34;;;9.42;100.00
28354;BME280;15603;50.878;8.036;2023-02-19T01:51:42;145483.03;;;9.39;100.00
28354;BME280;15603;50.878;8.036;2023-02-19T01:54:11;145480.63;;;9.38;100.00
28354;BME280;15603;50.878;8.036;2023-02-19T01:56:41;145497.63;;;9.45;100.00
28354;BME280;15603;50.878;8.036;2023-02-19T01:59:10;145475.78;;;9.36;100.00
28354;BME280;15603;50.878;8.036;2023-02-19T02:01:38;145497.63;;;9.45;100.00
28354;BME280;15603;50.878;8.036;2023-02-19T02:04:08;145504.91;;;9.48;100.00
28354;BME280;15603;50.878;8.036;2023-02-19T02:06:54;145504.91;;;9.48;100.00
28354;BME280;15603;50.878;8.036;2023-02-19T02:09:25;145475.78;;;9.36;100.00
28354;BME280;15603;50.878;8.036;2023-02-19T02:12:11;145373.75;;;8.93;100.00
28354;BME280;15603;50.878;8.036;2023-02-19T02:14:42;145475.78;;;9.36;100.00
28354;BME280;15603;50.878;8.036;2023-02-19T02:17:41;145494.00;;;9.43;100.00
28354;BME280;15603;50.878;8.036;2023-02-19T02:25:56;145457.56;;;9.28;100.00
28354;BME280;15603;50.878;8.036;2023-02-19T02:31:26;145483.03;;;9.39;100.00
28354;BME280;15603;50.878;8.036;2023-02-19T02:34:00;145490.34;;;9.42;100.00
28354;BME280;15603;50.878;8.036;2023-02-19T02:36:34;145480.63;;;9.38;100.00
28354;BME280;15603;50.878;8.036;2023-02-19T02:39:03;145484.28;;;9.39;100.00
28354;BME280;15603;50.878;8.036;2023-02-19T02:41:41;145495.19;;;9.44;100.00
28354;BME280;15603;50.878;8.036;2023-02-19T02:44:10;145463.63;;;9.31;100.00
28354;BME280;15603;50.878;8.036;2023-02-19T02:46:40;145418.69;;;9.12;100.00
28354;BME280;15603;50.878;8.036;2023-02-19T02:49:16;145492.78;;;9.43;100.00
28354;BME280;15603;50.878;8.036;2023-02-19T02:51:49;145412.63;;;9.09;100.00
28354;BME280;15603;50.878;8.036;2023-02-19T02:54:25;145496.41;;;9.44;100.00
28354;BME280;15603;50.878;8.036;2023-02-19T02:57:14;145502.50;;;9.47;100.00
28354;BME280;15603;50.878;8.036;2023-02-19T02:59:47;145483.03;;;9.39;100.00
28354;BME280;15603;50.878;8.036;2023-02-19T03:02:22;145473.31;;;9.35;100.00
28354;BME280;15603;50.878;8.036;2023-02-19T03:04:59;145463.63;;;9.31;100.00
28354;BME280;15603;50.878;8.036;2023-02-19T03:10:53;145438.13;;;9.20;100.00
28354;BME280;15603;50.878;8.036;2023-02-19T03:13:33;145415.03;;;9.10;100.00
28354;BME280;15603;50.878;8.036;2023-02-19T03:16:27;145433.25;;;9.18;100.00
28354;BME280;15603;50.878;8.036;2023-02-19T03:19:18;145371.34;;;8.92;100.00
28354;BME280;15603;50.878;8.036;2023-02-19T03:21:58;145401.72;;;9.04;100.00
28354;BME280;15603;50.878;8.036;2023-02-19T03:24:29;145429.63;;;9.16;100.00
28354;BME280;15603;50.878;8.036;2023-02-19T03:27:37;145428.38;;;9.16;100.00
28354;BME280;15603;50.878;8.036;2023-02-19T03:30:10;145446.59;;;9.23;100.00
28354;BME280;15603;50.878;8.036;2023-02-19T03:32:44;145451.44;;;9.26;100.00
28354;BME280;15603;50.878;8.036;2023-02-19T03:35:24;145449.03;;;9.24;100.00
28354;BME280;15603;50.878;8.036;2023-02-19T03:41:22;145457.56;;;9.28;100.00
28354;BME280;15603;50.878;8.036;2023-02-19T03:47:13;145445.41;;;9.23;100.00
28354;BME280;15603;50.878;8.036;2023-02-19T03:49:48;145427.19;;;9.15;100.00
28354;BME280;15603;50.878;8.036;2023-02-19T03:52:24;145424.78;;;9.14;100.00
28354;BME280;15603;50.878;8.036;2023-02-19T03:58:04;145443.00;;;9.22;100.00
28354;BME280;15603;50.878;8.036;2023-02-19T04:00:39;145449.03;;;9.24;100.00
28354;BME280;15603;50.878;8.036;2023-02-19T04:03:30;145444.19;;;9.22;100.00
28354;BME280;15603;50.878;8.036;2023-02-19T04:06:02;145445.41;;;9.23;100.00
28354;BME280;15603;50.878;8.036;2023-02-19T04:08:33;145334.94;;;8.76;100.00
28354;BME280;15603;50.878;8.036;2023-02-19T04:11:03;145440.53;;;9.21;100.00
28354;BME280;15603;50.878;8.036;2023-02-19T04:13:42;145440.53;;;9.21;100.00
28354;BME280;15603;50.878;8.036;2023-02-19T04:16:18;145388.34;;;8.99;100.00
28354;BME280;15603;50.878;8.036;2023-02-19T04:18:48;145434.47;;;9.18;100.00
28354;BME280;15603;50.878;8.036;2023-02-19T04:21:19;145432.03;;;9.17;100.00
28354;BME280;15603;50.878;8.036;2023-02-19T04:23:48;145385.91;;;8.98;100.00
28354;BME280;15603;50.878;8.036;2023-02-19T04:26:16;145447.84;;;9.24;100.00
28354;BME280;15603;50.878;8.036;2023-02-19T04:28:46;145444.19;;;9.22;100.00
28354;BME280;15603;50.878;8.036;2023-02-19T04:31:13;145407.75;;;9.07;100.00
28354;BME280;15603;50.878;8.036;2023-02-19T04:33:40;145388.34;;;8.99;100.00
28354;BME280;15603;50.878;8.036;2023-02-19T04:36:09;145418.69;;;9.12;100.00
28354;BME280;15603;50.878;8.036;2023-02-19T04:38:36;145366.50;;;8.90;100.00
28354;BME280;15603;50.878;8.036;2023-02-19T04:41:04;145410.16;;;9.08;100.00
28354;BME280;15603;50.878;8.036;2023-02-19T04:43:31;145388.34;;;8.99;100.00
28354;BME280;15603;50.878;8.036;2023-02-19T04:45:59;145400.47;;;9.04;100.00
28354;BME280;15603;50.878;8.036;2023-02-19T04:48:27;145365.28;;;8.89;100.00
28354;BME280;15603;50.878;8.036;2023-02-19T04:50:55;145385.91;;;8.98;100.00
28354;BME280;15603;50.878;8.036;2023-02-19T04:53:22;145388.34;;;8.99;100.00
28354;BME280;15603;50.878;8.036;2023-02-19T04:55:49;145368.91;;;8.91;100.00
28354;BME280;15603;50.878;8.036;2023-02-19T04:58:19;145371.34;;;8.92;100.00
28354;BME280;15603;50.878;8.036;2023-02-19T05:00:50;145201.41;;;8.20;100.00
28354;BME280;15603;50.878;8.036;2023-02-19T05:03:18;145349.47;;;8.82;100.00
28354;BME280;15603;50.878;8.036;2023-02-19T05:05:46;145359.19;;;8.87;100.00
28354;BME280;15603;50.878;8.036;2023-02-19T05:08:13;145333.72;;;8.76;100.00
28354;BME280;15603;50.878;8.036;2023-02-19T05:10:40;145281.50;;;8.54;100.00
28354;BME280;15603;50.878;8.036;2023-02-19T05:13:07;145266.94;;;8.48;100.00
28354;BME280;15603;50.878;8.036;2023-02-19T05:15:34;145371.34;;;8.92;100.00
28354;BME280;15603;50.878;8.036;2023-02-19T05:18:01;145390.75;;;9.00;100.00
28354;BME280;15603;50.878;8.036;2023-02-19T05:20:28;145291.22;;;8.58;100.00
28354;BME280;15603;50.878;8.036;2023-02-19T05:22:55;145376.19;;;8.94;100.00
28354;BME280;15603;50.878;8.036;2023-02-19T05:25:22;145370.16;;;8.91;100.00
28354;BME280;15603;50.878;8.036;2023-02-19T05:27:49;145315.50;;;8.68;100.00
28354;BME280;15603;50.878;8.036;2023-02-19T05:30:36;145383.50;;;8.97;100.00
28354;BME280;15603;50.878;8.036;2023-02-19T05:33:03;145384.69;;;8.97;100.00
28354;BME280;15603;50.878;8.036;2023-02-19T05:35:31;145384.69;;;8.97;100.00
28354;BME280;15603;50.878;8.036;2023-02-19T05:37:58;145381.06;;;8.96;100.00
28354;BME280;15603;50.878;8.036;2023-02-19T05:40:25;145371.34;;;8.92;100.00
28354;BME280;15603;50.878;8.036;2023-02-19T05:42:52;145364.03;;;8.89;100.00
28354;BME280;15603;50.878;8.036;2023-02-19T05:45:19;145376.19;;;8.94;100.00
28354;BME280;15603;50.878;8.036;2023-02-19T05:47:46;145330.06;;;8.74;100.00
28354;BME280;15603;50.878;8.036;2023-02-19T05:50:13;145376.19;;;8.94;100.00
28354;BME280;15603;50.878;8.036;2023-02-19T05:52:40;145366.50;;;8.90;100.00
28354;BME280;15603;50.878;8.036;2023-02-19T05:55:07;145391.97;;;9.00;100.00
28354;BME280;15603;50.878;8.036;2023-02-19T05:57:41;145388.34;;;8.99;100.00
28354;BME280;15603;50.878;8.036;2023-02-19T06:00:11;145249.91;;;8.40;100.00
28354;BME280;15603;50.878;8.036;2023-02-19T06:02:39;145391.97;;;9.00;100.00
28354;BME280;15603;50.878;8.036;2023-02-19T06:05:07;145396.81;;;9.02;100.00
28354;BME280;15603;50.878;8.036;2023-02-19T06:07:34;145364.03;;;8.89;100.00
28354;BME280;15603;50.878;8.036;2023-02-19T06:10:01;145361.63;;;8.88;100.00
28354;BME280;15603;50.878;8.036;2023-02-19T06:12:28;145277.84;;;8.52;100.00
28354;BME280;15603;50.878;8.036;2023-02-19T06:14:55;145283.97;;;8.55;100.00
28354;BME280;15603;50.878;8.036;2023-02-19T06:17:22;145285.16;;;8.55;100.00
28354;BME280;15603;50.878;8.036;2023-02-19T06:19:49;145355.53;;;8.85;100.00
28354;BME280;15603;50.878;8.036;2023-02-19T06:22:17;145310.66;;;8.66;100.00
28354;BME280;15603;50.878;8.036;2023-02-19T06:24:44;145313.06;;;8.67;100.00
28354;BME280;15603;50.878;8.036;2023-02-19T06:27:11;145362.84;;;8.88;100.00
28354;BME280;15603;50.878;8.036;2023-02-19T06:29:38;145366.50;;;8.90;100.00
28354;BME280;15603;50.878;8.036;2023-02-19T06:32:05;145355.53;;;8.85;100.00
28354;BME280;15603;50.878;8.036;2023-02-19T06:34:33;145344.63;;;8.80;100.00
28354;BME280;15603;50.878;8.036;2023-02-19T06:37:01;145368.91;;;8.91;100.00
28354;BME280;15603;50.878;8.036;2023-02-19T06:39:28;145367.69;;;8.90;100.00
28354;BME280;15603;50.878;8.036;2023-02-19T06:41:56;145342.19;;;8.79;100.00
28354;BME280;15603;50.878;8.036;2023-02-19T06:44:23;145323.97;;;8.72;100.00
28354;BME280;15603;50.878;8.036;2023-02-19T06:46:53;145330.06;;;8.74;100.00
28354;BME280;15603;50.878;8.036;2023-02-19T06:49:21;145274.25;;;8.51;100.00
28354;BME280;15603;50.878;8.036;2023-02-19T06:51:48;145218.34;;;8.27;100.00
28354;BME280;15603;50.878;8.036;2023-02-19T06:54:15;145332.47;;;8.75;100.00
28354;BME280;15603;50.878;8.036;2023-02-19T06:56:42;145331.28;;;8.75;100.00
28354;BME280;15603;50.878;8.036;2023-02-19T06:59:14;145328.88;;;8.74;100.00
28354;BME280;15603;50.878;8.036;2023-02-19T07:01:44;145350.69;;;8.83;100.00
28354;BME280;15603;50.878;8.036;2023-02-19T07:04:11;145330.06;;;8.74;100.00
28354;BME280;15603;50.878;8.036;2023-02-19T07:06:38;145360.38;;;8.87;100.00
28354;BME280;15603;50.878;8.036;2023-02-19T07:09:07;145366.50;;;8.90;100.00
28354;BME280;15603;50.878;8.036;2023-02-19T07:11:36;145387.09;;;8.98;100.00
28354;BME280;15603;50.878;8.036;2023-02-19T07:14:06;145376.19;;;8.94;100.00
28354;BME280;15603;50.878;8.036;2023-02-19T07:16:34;145399.25;;;9.03;100.00
28354;BME280;15603;50.878;8.036;2023-02-19T07:19:02;145377.41;;;8.94;100.00
28354;BME280;15603;50.878;8.036;2023-02-19T07:21:29;145413.81;;;9.10;100.00
28354;BME280;15603;50.878;8.036;2023-02-19T07:23:56;145412.63;;;9.09;100.00
28354;BME280;15603;50.878;8.036;2023-02-19T07:26:24;145384.69;;;8.97;100.00
28354;BME280;15603;50.878;8.036;2023-02-19T07:28:52;145339.78;;;8.78;100.00
28354;BME280;15603;50.878;8.036;2023-02-19T07:31:21;145265.75;;;8.47;100.00
28354;BME280;15603;50.878;8.036;2023-02-19T07:33:49;145160.09;;;8.02;100.00
28354;BME280;15603;50.878;8.036;2023-02-19T07:36:18;145356.78;;;8.86;100.00
28354;BME280;15603;50.878;8.036;2023-02-19T07:38:46;145381.06;;;8.96;100.00
28354;BME280;15603;50.878;8.036;2023-02-19T07:41:13;145361.63;;;8.88;100.00
28354;BME280;15603;50.878;8.036;2023-02-19T07:43:40;145400.47;;;9.04;100.00
28354;BME280;15603;50.878;8.036;2023-02-19T07:46:10;145372.53;;;8.92;100.00
28354;BME280;15603;50.878;8.036;2023-02-19T07:48:39;145391.97;;;9.00;100.00
28354;BME280;15603;50.878;8.036;2023-02-19T07:51:10;145382.25;;;8.96;100.00
28354;BME280;15603;50.878;8.036;2023-02-19T07:53:38;145342.19;;;8.79;100.00
28354;BME280;15603;50.878;8.036;2023-02-19T07:56:06;145368.91;;;8.91;100.00
28354;BME280;15603;50.878;8.036;2023-02-19T07:58:34;145381.06;;;8.96;100.00
28354;BME280;15603;50.878;8.036;2023-02-19T08:01:16;145364.03;;;8.89;100.00
28354;BME280;15603;50.878;8.036;2023-02-19T08:03:44;145364.03;;;8.89;100.00
28354;BME280;15603;50.878;8.036;2023-02-19T08:06:11;145262.09;;;8.45;100.00
28354;BME280;15603;50.878;8.036;2023-02-19T08:08:38;145303.38;;;8.63;100.00
28354;BME280;15603;50.878;8.036;2023-02-19T08:11:06;145351.94;;;8.83;100.00
28354;BME280;15603;50.878;8.036;2023-02-19T08:13:52;145391.97;;;9.00;100.00
28354;BME280;15603;50.878;8.036;2023-02-19T08:16:20;145385.91;;;8.98;100.00
28354;BME280;15603;50.878;8.036;2023-02-19T08:19:06;145385.91;;;8.98;100.00
28354;BME280;15603;50.878;8.036;2023-02-19T08:21:33;145373.75;;;8.93;100.00
28354;BME280;15603;50.878;8.036;2023-02-19T08:24:00;145373.75;;;8.93;100.00
28354;BME280;15603;50.878;8.036;2023-02-19T08:26:27;145398.06;;;9.03;100.00
28354;BME280;15603;50.878;8.036;2023-02-19T08:28:54;145394.41;;;9.01;100.00
28354;BME280;15603;50.878;8.036;2023-02-19T08:31:21;145402.91;;;9.05;100.00
28354;BME280;15603;50.878;8.036;2023-02-19T08:33:49;145349.47;;;8.82;100.00
28354;BME280;15603;50.878;8.036;2023-02-19T08:36:16;145402.91;;;9.05;100.00
28354;BME280;15603;50.878;8.036;2023-02-19T08:38:43;145429.63;;;9.16;100.00
28354;BME280;15603;50.878;8.036;2023-02-19T08:41:11;145317.91;;;8.69;100.00
28354;BME280;15603;50.878;8.036;2023-02-19T08:43:40;145435.69;;;9.19;100.00
28354;BME280;15603;50.878;8.036;2023-02-19T08:46:08;145406.56;;;9.07;100.00
28354;BME280;15603;50.878;8.036;2023-02-19T08:48:37;145417.47;;;9.11;100.00
28354;BME280;15603;50.878;8.036;2023-02-19T08:51:07;145384.69;;;8.97;100.00
28354;BME280;15603;50.878;8.036;2023-02-19T08:53:35;145243.84;;;8.38;100.00
28354;BME280;15603;50.878;8.036;2023-02-19T08:56:11;145376.19;;;8.94;100.00
28354;BME280;15603;50.878;8.036;2023-02-19T08:58:39;145266.94;;;8.48;100.00
28354;BME280;15603;50.878;8.036;2023-02-19T09:01:10;145416.28;;;9.11;100.00
28354;BME280;15603;50.878;8.036;2023-02-19T09:03:38;145412.63;;;9.09;100.00
28354;BME280;15603;50.878;8.036;2023-02-19T09:06:06;145432.03;;;9.17;100.00
28354;BME280;15603;50.878;8.036;2023-02-19T09:08:33;145400.47;;;9.04;100.00
28354;BME280;15603;50.878;8.036;2023-02-19T09:11:02;145400.47;;;9.04;100.00
28354;BME280;15603;50.878;8.036;2023-02-19T09:13:30;145472.13;;;9.34;100.00
28354;BME280;15603;50.878;8.036;2023-02-19T09:15:57;145509.75;;;9.50;100.00
28354;BME280;15603;50.878;8.036;2023-02-19T09:18:24;145421.13;;;9.13;100.00
28354;BME280;15603;50.878;8.036;2023-02-19T09:20:52;145337.31;;;8.77;100.00
28354;BME280;15603;50.878;8.036;2023-02-19T09:23:19;145468.47;;;9.33;100.00
28354;BME280;15603;50.878;8.036;2023-02-19T09:25:46;145458.75;;;9.29;100.00
28354;BME280;15603;50.878;8.036;2023-02-19T09:28:13;145276.66;;;8.52;100.00
28354;BME280;15603;50.878;8.036;2023-02-19T09:30:40;145432.03;;;9.17;100.00
28354;BME280;15603;50.878;8.036;2023-02-19T09:33:07;145436.88;;;9.19;100.00
28354;BME280;15603;50.878;8.036;2023-02-19T09:35:38;145432.03;;;9.17;100.00
28354;BME280;15603;50.878;8.036;2023-02-19T09:38:05;145430.84;;;9.17;100.00
28354;BME280;15603;50.878;8.036;2023-02-19T09:40:34;145449.03;;;9.24;100.00
28354;BME280;15603;50.878;8.036;2023-02-19T09:43:11;145377.41;;;8.94;100.00
28354;BME280;15603;50.878;8.036;2023-02-19T09:45:42;145481.81;;;9.38;100.00
28354;BME280;15603;50.878;8.036;2023-02-19T09:48:10;145473.31;;;9.35;100.00
28354;BME280;15603;50.878;8.036;2023-02-19T09:50:42;145495.19;;;9.44;100.00
28354;BME280;15603;50.878;8.036;2023-02-19T09:53:23;145534.06;;;9.60;100.00
28354;BME280;15603;50.878;8.036;2023-02-19T09:55:52;145531.63;;;9.59;100.00
28354;BME280;15603;50.878;8.036;2023-02-19T09:58:26;145540.13;;;9.63;100.00
28354;BME280;15603;50.878;8.036;2023-02-19T10:00:57;145623.94;;;9.98;100.00
28354;BME280;15603;50.878;8.036;2023-02-19T10:06:05;145542.53;;;9.64;100.00
28354;BME280;15603;50.878;8.036;2023-02-19T10:08:39;145529.22;;;9.58;100.00
28354;BME280;15603;50.878;8.036;2023-02-19T10:11:10;145551.06;;;9.68;100.00
28354;BME280;15603;50.878;8.036;2023-02-19T10:16:28;145524.31;;;9.56;100.00
28354;BME280;15603;50.878;8.036;2023-02-19T10:18:56;145580.22;;;9.80;100.00
28354;BME280;15603;50.878;8.036;2023-02-19T10:21:25;145654.31;;;10.11;100.00
28354;BME280;15603;50.878;8.036;2023-02-19T10:23:55;145709.06;;;10.34;100.00
28354;BME280;15603;50.878;8.036;2023-02-19T10:26:24;145715.13;;;10.37;100.00
28354;BME280;15603;50.878;8.036;2023-02-19T10:28:52;145591.13;;;9.85;100.00
28354;BME280;15603;50.878;8.036;2023-02-19T10:31:23;145636.09;;;10.03;100.00
28354;BME280;15603;50.878;8.036;2023-02-19T10:33:55;145639.75;;;10.05;100.00
28354;BME280;15603;50.878;8.036;2023-02-19T10:36:42;145490.34;;;9.42;100.00
28354;BME280;15603;50.878;8.036;2023-02-19T10:41:48;145597.19;;;9.87;100.00
28354;BME280;15603;50.878;8.036;2023-02-19T10:44:28;145517.06;;;9.53;100.00
28354;BME280;15603;50.878;8.036;2023-02-19T10:46:58;145569.28;;;9.75;100.00
28354;BME280;15603;50.878;8.036;2023-02-19T10:49:37;145519.47;;;9.54;100.00
28354;BME280;15603;50.878;8.036;2023-02-19T10:54:44;145527.97;;;9.58;100.00
28354;BME280;15603;50.878;8.036;2023-02-19T10:59:53;145565.66;;;9.74;100.00
28354;BME280;15603;50.878;8.036;2023-02-19T11:02:24;145589.94;;;9.84;100.00
28354;BME280;15603;50.878;8.036;2023-02-19T11:07:35;145750.38;;;10.52;100.00
28354;BME280;15603;50.878;8.036;2023-02-19T11:10:04;145794.16;;;10.70;100.00
28354;BME280;15603;50.878;8.036;2023-02-19T11:12:33;145796.56;;;10.71;100.00
28354;BME280;15603;50.878;8.036;2023-02-19T11:15:31;145854.91;;;10.96;100.00
28354;BME280;15603;50.878;8.036;2023-02-19T11:18:04;145800.22;;;10.73;100.00
28354;BME280;15603;50.878;8.036;2023-02-19T11:20:34;145792.91;;;10.70;100.00
28354;BME280;15603;50.878;8.036;2023-02-19T11:23:13;145623.94;;;9.98;100.00
28354;BME280;15603;50.878;8.036;2023-02-19T11:25:46;145689.56;;;10.26;100.00
28354;BME280;15603;50.878;8.036;2023-02-19T11:28:22;145684.72;;;10.24;100.00
28354;BME280;15603;50.878;8.036;2023-02-19T11:30:52;145660.38;;;10.14;100.00
28354;BME280;15603;50.878;8.036;2023-02-19T11:33:23;145500.03;;;9.46;100.00
28354;BME280;15603;50.878;8.036;2023-02-19T11:38:43;145519.47;;;9.54;100.00
28354;BME280;15603;50.878;8.036;2023-02-19T11:41:59;145733.34;;;10.45;100.00
28354;BME280;15603;50.878;8.036;2023-02-19T11:52:37;145757.69;;;10.55;100.00
28354;BME280;15603;50.878;8.036;2023-02-19T11:55:21;145682.25;;;10.23;100.00
28354;BME280;15603;50.878;8.036;2023-02-19T11:58:16;145617.88;;;9.96;100.00
28354;BME280;15603;50.878;8.036;2023-02-19T12:01:22;145636.09;;;10.03;100.00
28354;BME280;15603;50.878;8.036;2023-02-19T12:04:12;145677.41;;;10.21;100.00
28354;BME280;15603;50.878;8.036;2023-02-19T12:17:50;145623.94;;;9.98;100.00
28354;BME280;15603;50.878;8.036;2023-02-19T12:31:45;145667.69;;;10.17;100.00
28354;BME280;15603;50.878;8.036;2023-02-19T12:39:49;145678.59;;;10.21;100.00
28354;BME280;15603;50.878;8.036;2023-02-19T12:44:58;145784.38;;;10.66;100.00
28354;BME280;15603;50.878;8.036;2023-02-19T12:47:30;145830.63;;;10.86;100.00
28354;BME280;15603;50.878;8.036;2023-02-19T12:52:40;145816.00;;;10.79;100.00
28354;BME280;15603;50.878;8.036;2023-02-19T12:55:24;145850.06;;;10.94;100.00
28354;BME280;15603;50.878;8.036;2023-02-19T12:57:54;145830.63;;;10.86;100.00
28354;BME280;15603;50.878;8.036;2023-02-19T13:00:34;145876.81;;;11.05;100.00
28354;BME280;15603;50.878;8.036;2023-02-19T13:11:34;145603.31;;;9.90;100.00
28354;BME280;15603;50.878;8.036;2023-02-19T13:17:31;145766.16;;;10.58;100.00
28354;BME280;15603;50.878;8.036;2023-02-19T13:37:17;145711.50;;;10.35;100.00
28354;BME280;15603;50.878;8.036;2023-02-19T13:39:52;145660.38;;;10.14;100.00
28354;BME280;15603;50.878;8.036;2023-02-19T13:42:33;145726.09;;;10.41;100.00
28354;BME280;15603;50.878;8.036;2023-02-19T13:45:03;145781.97;;;10.65;100.00
28354;BME280;15603;50.878;8.036;2023-02-19T13:50:40;145799.00;;;10.72;100.00
28354;BME280;15603;50.878;8.036;2023-02-19T14:14:49;145628.78;;;10.00;100.00
28354;BME280;15603;50.878;8.036;2023-02-19T14:17:26;145521.91;;;9.55;100.00
28354;BME280;15603;50.878;8.036;2023-02-19T14:20:02;145572.91;;;9.77;100.00
28354;BME280;15603;50.878;8.036;2023-02-19T14:25:39;145599.66;;;9.88;100.00
28354;BME280;15603;50.878;8.036;2023-02-19T14:33:39;145492.78;;;9.43;100.00
28354;BME280;15603;50.878;8.036;2023-02-19T14:36:36;145576.56;;;9.78;100.00
28354;BME280;15603;50.878;8.036;2023-02-19T14:39:28;145554.69;;;9.69;100.00
28354;BME280;15603;50.878;8.036;2023-02-19T14:42:02;145608.16;;;9.92;100.00
28354;BME280;15603;50.878;8.036;2023-02-19T14:44:43;145654.31;;;10.11;100.00
28354;BME280;15603;50.878;8.036;2023-02-19T14:47:14;145653.13;;;10.11;100.00
28354;BME280;15603;50.878;8.036;2023-02-19T14:49:46;145534.06;;;9.60;100.00
28354;BME280;15603;50.878;8.036;2023-02-19T14:52:21;145621.53;;;9.97;100.00
28354;BME280;15603;50.878;8.036;2023-02-19T14:54:54;145655.53;;;10.12;100.00
28354;BME280;15603;50.878;8.036;2023-02-19T14:57:27;145576.56;;;9.78;100.00
28354;BME280;15603;50.878;8.036;2023-02-19T14:59:59;145627.59;;;10.00;100.00
28354;BME280;15603;50.878;8.036;2023-02-19T15:02:29;145593.59;;;9.86;100.00
28354;BME280;15603;50.878;8.036;2023-02-19T15:04:57;145605.72;;;9.91;100.00
28354;BME280;15603;50.878;8.036;2023-02-19T15:07:30;145564.41;;;9.73;100.00
28354;BME280;15603;50.878;8.036;2023-02-19T15:10:00;145553.50;;;9.69;100.00
28354;BME280;15603;50.878;8.036;2023-02-19T15:12:34;145532.81;;;9.60;100.00
28354;BME280;15603;50.878;8.036;2023-02-19T15:15:05;145521.91;;;9.55;100.00
28354;BME280;15603;50.878;8.036;2023-02-19T15:17:35;145548.66;;;9.67;100.00
28354;BME280;15603;50.878;8.036;2023-02-19T15:20:09;145535.28;;;9.61;100.00
28354;BME280;15603;50.878;8.036;2023-02-19T15:22:38;145540.13;;;9.63;100.00
28354;BME280;15603;50.878;8.036;2023-02-19T15:25:14;145412.63;;;9.09;100.00
28354;BME280;15603;50.878;8.036;2023-02-19T15:27:42;145521.91;;;9.55;100.00
28354;BME280;15603;50.878;8.036;2023-02-19T15:30:24;145504.91;;;9.48;100.00
28354;BME280;15603;50.878;8.036;2023-02-19T15:32:58;145490.34;;;9.42;100.00
28354;BME280;15603;50.878;8.036;2023-02-19T15:35:26;145495.19;;;9.44;100.00